• Join FlightAware (Why Join?)
  • Login
  • US Flag 
08:09PM EDT


 

Airport Tracker/Info


-or-


 

Live Flight TrackerFlight Track Log ✈ FDX1286 ✈ 23-Jul-2013 ✈ KLCK - KMEM

Flight Track Log - Related Links

Times and Time Zones

All times are in EDT time to prevent confusion due to time zone crossing. See the FDX1286 flight status page for this flight to view local times or setup timezone preferences in your user account.

Time Position Orientation Groundspeed Altitude Reporting Facility
EDT Latitude Longitude Course Direction KTS MPH feet Rate Location/Type
10:40PM 39.7720 -82.9770 217° Southwest 207 238 2,700  Level FlightAware
10:41PM 39.7500 -83.0010 220° Southwest 238 274 3,400 1,560 Climbing FlightAware
10:41PM 39.7250 -83.0300 222° Southwest 270 311 4,200 2,280 Climbing FlightAware
10:42PM 39.7180 -83.0530 248° West 264 304 5,100 3,360 Climbing FlightAware
10:42PM 39.7240 -83.0960 280° West 257 296 6,700 3,300 Climbing FlightAware
10:42PM 39.7300 -83.1390 280° West 257 296 8,200 3,000 Climbing FlightAware
10:43PM 39.7220 -83.1750 254° West 264 304 9,300 2,220 Climbing FlightAware
10:44PM 39.6980 -83.2300 240° Southwest 296 341 10,500 1,500 Climbing FlightAware
10:44PM 39.6650 -83.3050 240° Southwest 345 397 11,400 1,680 Climbing FlightAware
10:45PM 39.6360 -83.3680 239° Southwest 356 410 12,800 2,400 Climbing FlightAware
10:45PM 39.6020 -83.4410 239° Southwest 369 425 14,400 2,460 Climbing FlightAware
10:46PM 39.5620 -83.5300 240° Southwest 376 433 16,300 2,460 Climbing FlightAware
10:47PM 39.5270 -83.6080 240° Southwest 379 436 18,000 2,160 Climbing FlightAware
10:48PM 39.4880 -83.6910 239° Southwest 390 449 19,300 1,800 Climbing FlightAware
10:48PM 39.4490 -83.7770 240° Southwest 398 458 20,600 1,980 Climbing FlightAware
10:49PM 39.4110 -83.8610 240° Southwest 400 460 22,000 2,100 Climbing FlightAware
10:50PM 39.3750 -83.9370 239° Southwest 399 459 23,400 1,920 Climbing FlightAware
10:50PM 39.3350 -84.0240 239° Southwest 404 465 24,600 1,500 Climbing FlightAware
10:51PM 39.3030 -84.0930 239° Southwest 410 472 25,300 480 Climbing FlightAware
10:52PM 39.2590 -84.1830 238° Southwest 410 472 25,300 1,200 Level FlightAware
10:55PM 39.0560 -84.6200 239° Southwest 448 516 30,200 1,440 Climbing FlightAware
10:55PM 39.0160 -84.6920 234° Southwest 456 525 30,700 1,080 Climbing FlightAware
10:56PM 38.9440 -84.7730 221° Southwest 462 532 31,700 1,260 Climbing FlightAware
10:57PM 38.8380 -84.8750 217° Southwest 457 526 33,100 1,380 Climbing FlightAware
10:58PM 38.7600 -84.9510 217° Southwest 450 518 34,200 1,320 Climbing FlightAware
10:59PM 38.6920 -85.0160 217° Southwest 442 509 35,000 600 Climbing FlightAware
10:59PM 38.6420 -85.0650 217° Southwest 442 509 35,000  Level FlightAware
11:00PM 38.5650 -85.1390 217° Southwest 445 512 35,000  Level FlightAware
11:01PM 38.4900 -85.2100 217° Southwest 447 514 35,000 60 Level FlightAware
11:01PM 38.4230 -85.2740 217° Southwest 452 520 35,100 660 Climbing FlightAware
11:02PM 38.3570 -85.3380 217° Southwest 448 516 35,900 600 Climbing FlightAware
11:03PM 38.2840 -85.4070 217° Southwest 443 510 36,000 60 Climbing FlightAware
11:03PM 38.2180 -85.4690 216° Southwest 444 511 36,000  Level FlightAware
11:04PM 38.1580 -85.5260 217° Southwest 448 516 36,000  Level FlightAware
11:05PM 38.0910 -85.5870 216° Southwest 448 516 36,000  Level FlightAware
11:05PM 38.0090 -85.6490 211° Southwest 453 521 36,000  Level FlightAware
11:06PM 37.9510 -85.6920 210° Southwest 455 524 36,000  Level FlightAware
11:07PM 37.8700 -85.7520 210° Southwest 457 526 36,000  Level FlightAware
11:07PM 37.7940 -85.8090 211° Southwest 457 526 36,000  Level FlightAware
11:08PM 37.7170 -85.8660 210° Southwest 456 525 36,000  Level FlightAware
11:09PM 37.6430 -85.9200 210° Southwest 459 528 36,000  Level FlightAware
11:10PM 37.5630 -85.9800 211° Southwest 461 531 36,000  Level FlightAware
11:10PM 37.5280 -86.0057 210° Southwest 463 533 36,000  Level FlightAware ADS-B
11:10PM 37.4720 -86.0467 210° Southwest 465 535 36,000  Level FlightAware ADS-B
11:11PM 37.4149 -86.0892 211° Southwest 466 536 36,000  Level FlightAware ADS-B
11:11PM 37.3573 -86.1317 210° Southwest 470 541 36,000  Level FlightAware ADS-B
11:12PM 37.2990 -86.1733 210° Southwest 475 547 36,000  Level FlightAware ADS-B
11:12PM 37.2312 -86.2233 210° Southwest 478 550 36,000  Level FlightAware ADS-B
11:13PM 37.1404 -86.2893 210° Southwest 482 555 36,000 60 Level FlightAware ADS-B
11:14PM 37.0807 -86.3331 210° Southwest 483 556 36,100  Climbing FlightAware ADS-B
11:14PM 37.0196 -86.3782 211° Southwest 487 560 36,000 -120 Descending FlightAware ADS-B
11:15PM 36.9684 -86.4150 210° Southwest 488 562 36,000  Level FlightAware ADS-B
11:15PM 36.9522 -86.4290 215° Southwest 486 559 36,000  Level FlightAware ADS-B
11:15PM 36.9284 -86.4515 217° Southwest 483 556 36,000 180 Level FlightAware ADS-B
11:15PM 36.9036 -86.4824 225° Southwest 480 552 36,100 120 Climbing FlightAware ADS-B
11:16PM 36.8602 -86.5454 229° Southwest 473 544 36,100  Level FlightAware ADS-B
11:16PM 36.8179 -86.6070 229° Southwest 460 529 36,100 -120 Level FlightAware ADS-B
11:17PM 36.7743 -86.6713 230° Southwest 459 528 36,000 -120 Descending FlightAware ADS-B
11:17PM 36.7316 -86.7338 230° Southwest 458 527 36,000 -540 Level FlightAware ADS-B
11:18PM 36.6904 -86.7940 230° Southwest 456 525 35,500 -960 Descending FlightAware ADS-B
11:19PM 36.6449 -86.8609 230° Southwest 463 533 35,000 -300 Descending FlightAware ADS-B
11:20PM 36.5450 -87.0060 229° Southwest 460 529 35,000  Level FlightAware
11:20PM 36.4980 -87.0740 229° Southwest 456 525 35,000  Level FlightAware
11:21PM 36.4400 -87.1580 229° Southwest 458 527 35,000  Level FlightAware
11:22PM 36.3800 -87.2470 230° Southwest 461 531 35,000  Level FlightAware
11:22PM 36.3250 -87.3270 230° Southwest 462 532 35,000  Level FlightAware
11:23PM 36.2680 -87.4080 229° Southwest 463 533 35,000  Level FlightAware
11:24PM 36.2040 -87.5000 229° Southwest 460 529 35,000  Level FlightAware
11:24PM 36.1480 -87.5800 229° Southwest 461 531 35,000 -180 Level FlightAware
11:25PM 36.0860 -87.6680 229° Southwest 467 537 34,800 -600 Descending FlightAware
11:26PM 36.0300 -87.7480 229° Southwest 466 536 34,200 -960 Descending FlightAware
11:27PM 35.9680 -87.8370 229° Southwest 468 539 33,500 -1,020 Descending FlightAware
11:28PM 35.8890 -87.9490 229° Southwest 469 540 32,500 -1,020 Descending FlightAware
11:28PM 35.8380 -88.0210 229° Southwest 465 535 32,000 -840 Descending FlightAware
11:29PM 35.7770 -88.1050 228° Southwest 464 534 31,400 -2,220 Descending FlightAware
11:29PM 35.7240 -88.1820 230° Southwest 460 529 29,100 -1,920 Descending FlightAware
11:30PM 35.6710 -88.2550 228° Southwest 460 529 28,900 -180 Descending FlightAware
11:31PM 35.6270 -88.3140 227° Southwest 460 529 28,900  Level FlightAware
11:32PM 35.5690 -88.3930 228° Southwest 460 529 28,900  Level FlightAware
11:32PM 35.5230 -88.4560 228° Southwest 460 529 28,900  Level FlightAware
11:33PM 35.4650 -88.5350 228° Southwest 460 529 28,900 -6,240 Level FlightAware
11:34PM 35.3792 -88.6356 228° Southwest 419 482 19,000 -6,780 Descending Memphis Center
11:35PM 35.3075 -88.7261 226° Southwest 398 458 16,800 -2,280 Descending Memphis Center
11:36PM 35.2314 -88.8192 225° Southwest 382 440 14,500 -2,280 Descending Memphis Center
11:37PM 35.1594 -88.9094 226° Southwest 382 440 12,300 -1,800 Descending Memphis Center
11:38PM 35.0917 -88.9942 226° Southwest 382 440 11,000 -1,200 Descending Memphis Center
11:39PM 35.0361 -89.0764 230° Southwest 345 397 9,900 -1,320 Descending Memphis Center
11:40PM 35.0372 -89.1728 271° West 283 326 8,400 -1,440 Descending Memphis Center
11:41PM 35.0400 -89.2664 272° West 277 319 7,100 -900 Descending Memphis Center
11:42PM 35.0408 -89.3450 271° West 253 291 6,600 -540 Descending Memphis Center
11:43PM 35.0433 -89.4211 272° West 228 262 6,100 -660 Descending Memphis Center
11:44PM 35.0458 -89.4844 273° West 214 246 5,300 -900 Descending Memphis Center
11:45PM 35.0486 -89.5506 273° West 207 238 4,300 -660 Descending Memphis Center
11:46PM 35.0489 -89.6064 270° West 186 214 4,000 -600 Descending Memphis Center
11:47PM 35.0511 -89.6594 273° West 163 188 3,200 -540 Descending Memphis Center
11:48PM 35.0536 -89.7078 274° West 157 181 3,000 -120 Descending Memphis Center
11:49PM 35.0558 -89.7608 273° West 157 181 3,000 -240 Level Memphis Center
11:50PM 35.0561 -89.8092 270° West 157 181 2,600 -600 Descending Memphis Center
11:51PM 35.0586 -89.8600 273° West 157 181 1,900 -780 Descending Memphis Center
11:52PM 35.0586 -89.9056 270° West 157 181 1,100 -720 Descending Memphis Center
11:53PM 35.0500 -89.9500 257° West 133 153 600 -600 Descending KMEM
11:55PM 35.0333 -89.9667 270° West  Level FlightAware Approximate
12:02AM 35.0424 -89.9767 270° West  Level Estimated
12:03AM 35.0424 -89.9767 270° West  Level Estimated
12:04AM 35.0424 -89.9767 270° West  Level Estimated
12:05AM 35.0424 -89.9767 270° West  Level Estimated
12:06AM 35.0424 -89.9767 270° West  Level Estimated